sensor_id;sensor_type;location;lat;lon;timestamp;pressure;altitude;pressure_sealevel;temperature;humidity
73842;BME280;62184;52.006;5.924;2022-10-16T00:01:06;100264.91;;;13.53;82.17
73842;BME280;62184;52.006;5.924;2022-10-16T00:03:34;100261.41;;;13.51;81.92
73842;BME280;62184;52.006;5.924;2022-10-16T00:06:01;100262.34;;;13.50;82.03
73842;BME280;62184;52.006;5.924;2022-10-16T00:08:29;100273.88;;;13.52;82.00
73842;BME280;62184;52.006;5.924;2022-10-16T00:11:00;100268.50;;;13.52;82.08
73842;BME280;62184;52.006;5.924;2022-10-16T00:13:28;100268.66;;;13.49;81.84
73842;BME280;62184;52.006;5.924;2022-10-16T00:15:58;100264.31;;;13.46;81.99
73842;BME280;62184;52.006;5.924;2022-10-16T00:18:25;100262.56;;;13.45;82.09
73842;BME280;62184;52.006;5.924;2022-10-16T00:20:54;100265.31;;;13.43;81.94
73842;BME280;62184;52.006;5.924;2022-10-16T00:23:21;100260.94;;;13.41;81.97
73842;BME280;62184;52.006;5.924;2022-10-16T00:25:54;100265.56;;;13.37;81.95
73842;BME280;62184;52.006;5.924;2022-10-16T00:28:22;100265.69;;;13.34;82.15
73842;BME280;62184;52.006;5.924;2022-10-16T00:30:48;100260.34;;;13.34;82.34
73842;BME280;62184;52.006;5.924;2022-10-16T00:33:17;100256.72;;;13.35;82.32
73842;BME280;62184;52.006;5.924;2022-10-16T00:35:44;100263.81;;;13.36;82.65
73842;BME280;62184;52.006;5.924;2022-10-16T00:38:11;100268.31;;;13.36;82.47
73842;BME280;62184;52.006;5.924;2022-10-16T00:40:37;100268.31;;;13.36;82.67
73842;BME280;62184;52.006;5.924;2022-10-16T00:43:12;100265.69;;;13.34;82.76
73842;BME280;62184;52.006;5.924;2022-10-16T00:45:40;100270.19;;;13.34;82.51
73842;BME280;62184;52.006;5.924;2022-10-16T00:48:11;100267.56;;;13.32;82.53
73842;BME280;62184;52.006;5.924;2022-10-16T00:50:41;100280.19;;;13.30;82.73
73842;BME280;62184;52.006;5.924;2022-10-16T00:53:08;100275.72;;;13.31;82.62
73842;BME280;62184;52.006;5.924;2022-10-16T00:55:36;100276.56;;;13.31;82.49
73842;BME280;62184;52.006;5.924;2022-10-16T00:58:02;100268.59;;;13.30;82.88
73842;BME280;62184;52.006;5.924;2022-10-16T01:00:28;100265.06;;;13.29;82.66
73842;BME280;62184;52.006;5.924;2022-10-16T01:02:57;100273.09;;;13.29;82.87
73842;BME280;62184;52.006;5.924;2022-10-16T01:05:27;100266.78;;;13.30;82.64
73842;BME280;62184;52.006;5.924;2022-10-16T01:08:11;100274.84;;;13.30;82.52
73842;BME280;62184;52.006;5.924;2022-10-16T01:10:50;100271.19;;;13.31;82.73
73842;BME280;62184;52.006;5.924;2022-10-16T01:13:26;100284.59;;;13.31;82.79
73842;BME280;62184;52.006;5.924;2022-10-16T01:16:02;100282.72;;;13.33;82.87
73842;BME280;62184;52.006;5.924;2022-10-16T01:18:39;100271.06;;;13.34;82.66
73842;BME280;62184;52.006;5.924;2022-10-16T01:21:14;100275.41;;;13.38;82.71
73842;BME280;62184;52.006;5.924;2022-10-16T01:23:51;100274.31;;;13.42;82.85
73842;BME280;62184;52.006;5.924;2022-10-16T01:26:36;100272.38;;;13.46;82.99
73842;BME280;62184;52.006;5.924;2022-10-16T01:29:22;100270.56;;;13.47;82.79
73842;BME280;62184;52.006;5.924;2022-10-16T01:32:02;100273.22;;;13.47;82.92
73842;BME280;62184;52.006;5.924;2022-10-16T01:34:39;100261.63;;;13.46;82.86
73842;BME280;62184;52.006;5.924;2022-10-16T01:37:16;100263.28;;;13.49;82.74
73842;BME280;62184;52.006;5.924;2022-10-16T01:39:48;100273.13;;;13.48;82.74
73842;BME280;62184;52.006;5.924;2022-10-16T01:42:23;100275.81;;;13.48;82.93
73842;BME280;62184;52.006;5.924;2022-10-16T01:44:58;100267.72;;;13.50;83.17
73842;BME280;62184;52.006;5.924;2022-10-16T01:47:27;100265.84;;;13.52;82.82
73842;BME280;62184;52.006;5.924;2022-10-16T01:49:58;100257.78;;;13.52;82.83
73842;BME280;62184;52.006;5.924;2022-10-16T01:52:28;100266.72;;;13.52;83.13
73842;BME280;62184;52.006;5.924;2022-10-16T01:54:57;100264.75;;;13.56;82.99
73842;BME280;62184;52.006;5.924;2022-10-16T01:57:28;100258.44;;;13.57;82.88
73842;BME280;62184;52.006;5.924;2022-10-16T02:00:07;100271.59;;;13.63;82.91
73842;BME280;62184;52.006;5.924;2022-10-16T02:02:38;100282.97;;;13.68;82.30
73842;BME280;62184;52.006;5.924;2022-10-16T02:05:11;100291.66;;;13.73;82.77
73842;BME280;62184;52.006;5.924;2022-10-16T02:07:42;100285.34;;;13.74;82.55
73842;BME280;62184;52.006;5.924;2022-10-16T02:10:09;100273.75;;;13.73;82.56
73842;BME280;62184;52.006;5.924;2022-10-16T02:12:38;100267.50;;;13.73;82.32
73842;BME280;62184;52.006;5.924;2022-10-16T02:15:11;100265.78;;;13.72;82.39
73842;BME280;62184;52.006;5.924;2022-10-16T02:17:38;100285.34;;;13.74;82.65
73842;BME280;62184;52.006;5.924;2022-10-16T02:20:05;100286.16;;;13.76;82.80
73842;BME280;62184;52.006;5.924;2022-10-16T02:22:35;100280.66;;;13.79;82.64
73842;BME280;62184;52.006;5.924;2022-10-16T02:25:08;100271.72;;;13.78;82.56
73842;BME280;62184;52.006;5.924;2022-10-16T02:27:41;100279.72;;;13.80;82.35
73842;BME280;62184;52.006;5.924;2022-10-16T02:30:20;100283.34;;;13.79;82.47
73842;BME280;62184;52.006;5.924;2022-10-16T02:32:51;100291.47;;;13.77;82.33
73842;BME280;62184;52.006;5.924;2022-10-16T02:35:21;100282.59;;;13.75;82.35
73842;BME280;62184;52.006;5.924;2022-10-16T02:37:50;100288.97;;;13.73;82.02
73842;BME280;62184;52.006;5.924;2022-10-16T02:40:18;100288.13;;;13.72;82.24
73842;BME280;62184;52.006;5.924;2022-10-16T02:42:50;100285.44;;;13.72;82.16
73842;BME280;62184;52.006;5.924;2022-10-16T02:45:21;100280.91;;;13.73;82.28
73842;BME280;62184;52.006;5.924;2022-10-16T02:47:48;100277.41;;;13.72;81.91
73842;BME280;62184;52.006;5.924;2022-10-16T02:50:15;100280.91;;;13.73;82.10
73842;BME280;62184;52.006;5.924;2022-10-16T02:52:42;100275.56;;;13.73;81.51
73842;BME280;62184;52.006;5.924;2022-10-16T02:55:09;100282.84;;;13.71;81.78
73842;BME280;62184;52.006;5.924;2022-10-16T02:57:35;100290.00;;;13.70;82.04
73842;BME280;62184;52.006;5.924;2022-10-16T03:00:02;100290.88;;;13.71;81.88
73842;BME280;62184;52.006;5.924;2022-10-16T03:02:32;100298.13;;;13.69;81.74
73842;BME280;62184;52.006;5.924;2022-10-16T03:04:59;100295.50;;;13.67;81.58
73842;BME280;62184;52.006;5.924;2022-10-16T03:07:25;100289.19;;;13.68;81.86
73842;BME280;62184;52.006;5.924;2022-10-16T03:09:51;100284.56;;;13.72;82.06
73842;BME280;62184;52.006;5.924;2022-10-16T03:12:18;100290.66;;;13.75;81.87
73842;BME280;62184;52.006;5.924;2022-10-16T03:14:44;100285.88;;;13.82;81.93
73842;BME280;62184;52.006;5.924;2022-10-16T03:17:10;100280.13;;;13.90;81.71
73842;BME280;62184;52.006;5.924;2022-10-16T03:19:39;100281.00;;;13.90;81.23
73842;BME280;62184;52.006;5.924;2022-10-16T03:22:06;100281.97;;;13.89;81.23
73842;BME280;62184;52.006;5.924;2022-10-16T03:24:32;100284.78;;;13.86;80.77
73842;BME280;62184;52.006;5.924;2022-10-16T03:26:58;100289.41;;;13.82;81.15
73842;BME280;62184;52.006;5.924;2022-10-16T03:29:25;100303.94;;;13.78;81.05
73842;BME280;62184;52.006;5.924;2022-10-16T03:31:51;100305.75;;;13.78;80.95
73842;BME280;62184;52.006;5.924;2022-10-16T03:34:18;100298.78;;;13.74;80.79
73842;BME280;62184;52.006;5.924;2022-10-16T03:36:47;100287.25;;;13.72;81.22
73842;BME280;62184;52.006;5.924;2022-10-16T03:39:13;100292.63;;;13.72;80.79
73842;BME280;62184;52.006;5.924;2022-10-16T03:41:40;100298.94;;;13.71;80.65
73842;BME280;62184;52.006;5.924;2022-10-16T03:44:06;100296.25;;;13.71;81.07
73842;BME280;62184;52.006;5.924;2022-10-16T03:46:33;100297.19;;;13.70;80.97
73842;BME280;62184;52.006;5.924;2022-10-16T03:48:59;100304.31;;;13.71;80.80
73842;BME280;62184;52.006;5.924;2022-10-16T03:51:26;100304.25;;;13.72;80.88
73842;BME280;62184;52.006;5.924;2022-10-16T03:53:55;100309.50;;;13.74;80.88
73842;BME280;62184;52.006;5.924;2022-10-16T03:56:21;100306.69;;;13.77;80.70
73842;BME280;62184;52.006;5.924;2022-10-16T03:58:48;100308.44;;;13.78;80.67
73842;BME280;62184;52.006;5.924;2022-10-16T04:01:15;100305.69;;;13.79;80.61
73842;BME280;62184;52.006;5.924;2022-10-16T04:03:41;100306.56;;;13.80;80.24
73842;BME280;62184;52.006;5.924;2022-10-16T04:06:08;100308.31;;;13.81;80.22
73842;BME280;62184;52.006;5.924;2022-10-16T04:08:34;100311.06;;;13.79;80.06
73842;BME280;62184;52.006;5.924;2022-10-16T04:11:03;100310.31;;;13.76;80.17
73842;BME280;62184;52.006;5.924;2022-10-16T04:13:30;100321.06;;;13.76;80.37
73842;BME280;62184;52.006;5.924;2022-10-16T04:15:57;100325.53;;;13.75;80.35
73842;BME280;62184;52.006;5.924;2022-10-16T04:18:23;100323.66;;;13.77;80.23
73842;BME280;62184;52.006;5.924;2022-10-16T04:20:49;100332.53;;;13.79;80.56
73842;BME280;62184;52.006;5.924;2022-10-16T04:23:16;100344.78;;;13.85;80.24
73842;BME280;62184;52.006;5.924;2022-10-16T04:25:42;100344.56;;;13.90;80.01
73842;BME280;62184;52.006;5.924;2022-10-16T04:28:11;100344.44;;;13.93;79.95
73842;BME280;62184;52.006;5.924;2022-10-16T04:30:38;100342.56;;;13.95;80.04
73842;BME280;62184;52.006;5.924;2022-10-16T04:33:05;100356.78;;;13.97;79.75
73842;BME280;62184;52.006;5.924;2022-10-16T04:35:31;100363.81;;;13.99;79.58
73842;BME280;62184;52.006;5.924;2022-10-16T04:37:58;100357.50;;;14.00;79.56
73842;BME280;62184;52.006;5.924;2022-10-16T04:40:24;100355.75;;;13.99;79.72
73842;BME280;62184;52.006;5.924;2022-10-16T04:42:50;100358.53;;;13.98;79.70
73842;BME280;62184;52.006;5.924;2022-10-16T04:45:20;100360.34;;;13.97;79.64
73842;BME280;62184;52.006;5.924;2022-10-16T04:47:46;100373.78;;;13.97;79.12
73842;BME280;62184;52.006;5.924;2022-10-16T04:50:12;100375.72;;;13.94;79.17
73842;BME280;62184;52.006;5.924;2022-10-16T04:52:39;100364.38;;;13.87;78.89
73842;BME280;62184;52.006;5.924;2022-10-16T04:55:06;100361.13;;;13.80;78.82
73842;BME280;62184;52.006;5.924;2022-10-16T04:57:33;100363.81;;;13.80;78.99
73842;BME280;62184;52.006;5.924;2022-10-16T04:59:59;100378.94;;;13.81;79.02
73842;BME280;62184;52.006;5.924;2022-10-16T05:02:29;100376.34;;;13.80;79.02
73842;BME280;62184;52.006;5.924;2022-10-16T05:04:55;100388.03;;;13.79;79.17
73842;BME280;62184;52.006;5.924;2022-10-16T05:07:21;100391.53;;;13.81;79.15
73842;BME280;62184;52.006;5.924;2022-10-16T05:09:48;100384.41;;;13.80;78.76
73842;BME280;62184;52.006;5.924;2022-10-16T05:12:14;100391.59;;;13.79;78.46
73842;BME280;62184;52.006;5.924;2022-10-16T05:14:41;100381.03;;;13.75;78.42
73842;BME280;62184;52.006;5.924;2022-10-16T05:17:07;100385.59;;;13.73;78.46
73842;BME280;62184;52.006;5.924;2022-10-16T05:19:36;100388.50;;;13.68;78.26
73842;BME280;62184;52.006;5.924;2022-10-16T05:22:03;100396.69;;;13.65;78.50
73842;BME280;62184;52.006;5.924;2022-10-16T05:24:29;100405.81;;;13.61;78.37
73842;BME280;62184;52.006;5.924;2022-10-16T05:26:57;100402.38;;;13.58;78.20
73842;BME280;62184;52.006;5.924;2022-10-16T05:29:23;100409.66;;;13.56;78.13
73842;BME280;62184;52.006;5.924;2022-10-16T05:31:51;100400.84;;;13.52;78.20
73842;BME280;62184;52.006;5.924;2022-10-16T05:34:17;100409.84;;;13.51;78.04
73842;BME280;62184;52.006;5.924;2022-10-16T05:36:47;100415.28;;;13.50;78.45
73842;BME280;62184;52.006;5.924;2022-10-16T05:39:14;100416.38;;;13.46;78.31
73842;BME280;62184;52.006;5.924;2022-10-16T05:41:41;100419.22;;;13.41;78.20
73842;BME280;62184;52.006;5.924;2022-10-16T05:44:07;100435.44;;;13.38;78.38
73842;BME280;62184;52.006;5.924;2022-10-16T05:46:34;100433.66;;;13.38;78.31
73842;BME280;62184;52.006;5.924;2022-10-16T05:49:00;100440.00;;;13.36;78.06
73842;BME280;62184;52.006;5.924;2022-10-16T05:51:27;100449.97;;;13.32;78.31
73842;BME280;62184;52.006;5.924;2022-10-16T05:53:56;100449.19;;;13.30;78.13
73842;BME280;62184;52.006;5.924;2022-10-16T05:56:22;100456.34;;;13.30;77.82
73842;BME280;62184;52.006;5.924;2022-10-16T05:58:49;100460.91;;;13.28;77.93
73842;BME280;62184;52.006;5.924;2022-10-16T06:01:17;100460.97;;;13.26;77.86
73842;BME280;62184;52.006;5.924;2022-10-16T06:03:45;100460.19;;;13.23;77.90
73842;BME280;62184;52.006;5.924;2022-10-16T06:06:12;100470.94;;;13.23;77.82
73842;BME280;62184;52.006;5.924;2022-10-16T06:08:42;100470.16;;;13.21;78.05
73842;BME280;62184;52.006;5.924;2022-10-16T06:11:13;100470.09;;;13.22;78.09
73842;BME280;62184;52.006;5.924;2022-10-16T06:13:41;100472.78;;;13.22;77.79
73842;BME280;62184;52.006;5.924;2022-10-16T06:16:08;100476.28;;;13.23;77.76
73842;BME280;62184;52.006;5.924;2022-10-16T06:18:36;100486.19;;;13.22;78.00
73842;BME280;62184;52.006;5.924;2022-10-16T06:21:07;100482.63;;;13.22;78.08
73842;BME280;62184;52.006;5.924;2022-10-16T06:23:35;100477.88;;;13.28;78.21
73842;BME280;62184;52.006;5.924;2022-10-16T06:26:05;100485.66;;;13.34;78.29
73842;BME280;62184;52.006;5.924;2022-10-16T06:28:35;100479.13;;;13.41;78.39
73842;BME280;62184;52.006;5.924;2022-10-16T06:31:03;100483.28;;;13.49;78.18
73842;BME280;62184;52.006;5.924;2022-10-16T06:33:30;100491.97;;;13.55;77.87
73842;BME280;62184;52.006;5.924;2022-10-16T06:36:00;100494.50;;;13.58;77.69
73842;BME280;62184;52.006;5.924;2022-10-16T06:38:27;100496.94;;;13.64;77.53
73842;BME280;62184;52.006;5.924;2022-10-16T06:40:54;100501.09;;;13.71;77.43
73842;BME280;62184;52.006;5.924;2022-10-16T06:43:20;100503.47;;;13.79;77.31
73842;BME280;62184;52.006;5.924;2022-10-16T06:45:52;100515.59;;;13.88;77.21
73842;BME280;62184;52.006;5.924;2022-10-16T06:48:20;100519.00;;;13.91;77.17
73842;BME280;62184;52.006;5.924;2022-10-16T06:50:55;100526.88;;;13.96;77.16
73842;BME280;62184;52.006;5.924;2022-10-16T06:53:23;100529.50;;;13.97;76.91
73842;BME280;62184;52.006;5.924;2022-10-16T06:55:49;100541.78;;;14.03;76.89
73842;BME280;62184;52.006;5.924;2022-10-16T06:58:16;100541.72;;;14.04;76.55
73842;BME280;62184;52.006;5.924;2022-10-16T07:00:42;100550.66;;;14.05;76.63
73842;BME280;62184;52.006;5.924;2022-10-16T07:03:12;100546.81;;;14.10;76.83
73842;BME280;62184;52.006;5.924;2022-10-16T07:05:39;100543.06;;;14.14;76.56
73842;BME280;62184;52.006;5.924;2022-10-16T07:08:06;100551.66;;;14.23;76.21
73842;BME280;62184;52.006;5.924;2022-10-16T07:10:33;100558.63;;;14.27;76.40
73842;BME280;62184;52.006;5.924;2022-10-16T07:12:59;100558.34;;;14.33;76.24
73842;BME280;62184;52.006;5.924;2022-10-16T07:15:26;100566.34;;;14.34;76.19
73842;BME280;62184;52.006;5.924;2022-10-16T07:17:53;100572.47;;;14.38;75.94
73842;BME280;62184;52.006;5.924;2022-10-16T07:20:22;100568.84;;;14.39;75.65
73842;BME280;62184;52.006;5.924;2022-10-16T07:22:48;100571.31;;;14.43;75.72
73842;BME280;62184;52.006;5.924;2022-10-16T07:25:15;100583.69;;;14.47;75.53
73842;BME280;62184;52.006;5.924;2022-10-16T07:27:41;100594.25;;;14.50;75.89
73842;BME280;62184;52.006;5.924;2022-10-16T07:30:08;100601.31;;;14.53;75.71
73842;BME280;62184;52.006;5.924;2022-10-16T07:32:35;100611.00;;;14.57;75.49
73842;BME280;62184;52.006;5.924;2022-10-16T07:35:02;100618.16;;;14.58;75.23
73842;BME280;62184;52.006;5.924;2022-10-16T07:37:31;100609.88;;;14.63;75.46
73842;BME280;62184;52.006;5.924;2022-10-16T07:39:57;100628.34;;;14.70;75.26
73842;BME280;62184;52.006;5.924;2022-10-16T07:42:24;100627.25;;;14.74;75.12
73842;BME280;62184;52.006;5.924;2022-10-16T07:44:50;100633.31;;;14.79;75.25
73842;BME280;62184;52.006;5.924;2022-10-16T07:47:16;100627.94;;;14.79;75.06
73842;BME280;62184;52.006;5.924;2022-10-16T07:49:43;100633.16;;;14.82;75.19
73842;BME280;62184;52.006;5.924;2022-10-16T07:52:09;100634.72;;;14.88;75.01
73842;BME280;62184;52.006;5.924;2022-10-16T07:54:38;100635.53;;;14.90;74.93
73842;BME280;62184;52.006;5.924;2022-10-16T07:57:04;100631.66;;;14.96;74.79
73842;BME280;62184;52.006;5.924;2022-10-16T07:59:31;100639.25;;;15.06;74.84
73842;BME280;62184;52.006;5.924;2022-10-16T08:01:57;100642.22;;;15.19;74.74
73842;BME280;62184;52.006;5.924;2022-10-16T08:04:23;100645.50;;;15.25;74.73
73842;BME280;62184;52.006;5.924;2022-10-16T08:06:50;100643.25;;;15.35;74.22
73842;BME280;62184;52.006;5.924;2022-10-16T08:09:16;100640.91;;;15.46;74.35
73842;BME280;62184;52.006;5.924;2022-10-16T08:11:45;100641.00;;;15.63;74.25
73842;BME280;62184;52.006;5.924;2022-10-16T08:14:12;100642.81;;;15.82;73.86
73842;BME280;62184;52.006;5.924;2022-10-16T08:16:38;100651.13;;;15.94;73.47
73842;BME280;62184;52.006;5.924;2022-10-16T08:19:04;100648.84;;;16.04;73.38
73842;BME280;62184;52.006;5.924;2022-10-16T08:21:31;100662.16;;;16.24;72.83
73842;BME280;62184;52.006;5.924;2022-10-16T08:23:57;100660.69;;;16.36;72.43
73842;BME280;62184;52.006;5.924;2022-10-16T08:26:25;100660.47;;;16.40;72.30
73842;BME280;62184;52.006;5.924;2022-10-16T08:28:55;100660.19;;;16.45;71.45
73842;BME280;62184;52.006;5.924;2022-10-16T08:31:22;100666.81;;;16.39;71.26
73842;BME280;62184;52.006;5.924;2022-10-16T08:33:50;100674.47;;;16.30;70.92
73842;BME280;62184;52.006;5.924;2022-10-16T08:36:16;100677.78;;;16.18;71.22
73842;BME280;62184;52.006;5.924;2022-10-16T08:38:42;100675.16;;;16.16;71.74
73842;BME280;62184;52.006;5.924;2022-10-16T08:41:22;100680.88;;;16.10;71.23
73842;BME280;62184;52.006;5.924;2022-10-16T08:44:17;100686.25;;;16.10;71.35
73842;BME280;62184;52.006;5.924;2022-10-16T08:47:02;100680.88;;;16.10;71.33
73842;BME280;62184;52.006;5.924;2022-10-16T08:49:40;100685.56;;;16.06;71.13
73842;BME280;62184;52.006;5.924;2022-10-16T08:52:10;100688.16;;;16.08;71.24
73842;BME280;62184;52.006;5.924;2022-10-16T08:54:42;100690.16;;;16.22;71.13
73842;BME280;62184;52.006;5.924;2022-10-16T08:57:16;100705.28;;;16.24;71.16
73842;BME280;62184;52.006;5.924;2022-10-16T08:59:48;100708.78;;;16.26;71.07
73842;BME280;62184;52.006;5.924;2022-10-16T09:02:28;100713.84;;;16.32;70.63
73842;BME280;62184;52.006;5.924;2022-10-16T09:05:16;100713.84;;;16.32;70.52
73842;BME280;62184;52.006;5.924;2022-10-16T09:07:57;100717.34;;;16.34;70.18
73842;BME280;62184;52.006;5.924;2022-10-16T09:10:44;100723.47;;;16.38;70.53
73842;BME280;62184;52.006;5.924;2022-10-16T09:13:26;100727.53;;;16.47;70.26
73842;BME280;62184;52.006;5.924;2022-10-16T09:16:01;100733.41;;;16.55;70.14
73842;BME280;62184;52.006;5.924;2022-10-16T09:18:47;100728.53;;;16.63;69.81
73842;BME280;62184;52.006;5.924;2022-10-16T09:21:23;100730.97;;;16.67;69.48
73842;BME280;62184;52.006;5.924;2022-10-16T09:23:54;100734.25;;;16.74;69.31
73842;BME280;62184;52.006;5.924;2022-10-16T09:26:25;100740.13;;;16.82;68.78
73842;BME280;62184;52.006;5.924;2022-10-16T09:28:52;100735.25;;;16.89;68.68
73842;BME280;62184;52.006;5.924;2022-10-16T09:31:22;100738.25;;;17.00;68.94
73842;BME280;62184;52.006;5.924;2022-10-16T09:33:52;100741.03;;;17.15;68.47
73842;BME280;62184;52.006;5.924;2022-10-16T09:36:21;100744.19;;;17.24;67.77
73842;BME280;62184;52.006;5.924;2022-10-16T09:39:02;100748.22;;;17.32;67.51
73842;BME280;62184;52.006;5.924;2022-10-16T09:41:30;100747.78;;;17.40;67.52
73842;BME280;62184;52.006;5.924;2022-10-16T09:44:00;100756.50;;;17.45;67.07
73842;BME280;62184;52.006;5.924;2022-10-16T09:46:33;100757.03;;;17.51;67.06
73842;BME280;62184;52.006;5.924;2022-10-16T09:49:03;100766.81;;;17.54;66.89
73842;BME280;62184;52.006;5.924;2022-10-16T09:51:32;100768.25;;;17.61;66.69
73842;BME280;62184;52.006;5.924;2022-10-16T09:54:02;100764.25;;;17.68;66.32
73842;BME280;62184;52.006;5.924;2022-10-16T09:56:39;100762.94;;;17.75;66.05
73842;BME280;62184;52.006;5.924;2022-10-16T09:59:10;100759.72;;;17.84;65.85
73842;BME280;62184;52.006;5.924;2022-10-16T10:01:44;100779.78;;;17.96;66.43
73842;BME280;62184;52.006;5.924;2022-10-16T10:04:12;100767.31;;;18.09;65.48
73842;BME280;62184;52.006;5.924;2022-10-16T10:06:43;100768.63;;;18.18;64.97
73842;BME280;62184;52.006;5.924;2022-10-16T10:09:17;100772.28;;;18.32;65.69
73842;BME280;62184;52.006;5.924;2022-10-16T10:11:52;100778.00;;;18.42;64.88
73842;BME280;62184;52.006;5.924;2022-10-16T10:14:22;100786.03;;;18.44;64.37
73842;BME280;62184;52.006;5.924;2022-10-16T10:17:07;100781.78;;;18.55;65.03
73842;BME280;62184;52.006;5.924;2022-10-16T10:19:38;100779.84;;;18.73;64.87
73842;BME280;62184;52.006;5.924;2022-10-16T10:22:16;100772.53;;;18.89;63.73
73842;BME280;62184;52.006;5.924;2022-10-16T10:24:44;100784.56;;;18.99;63.91
73842;BME280;62184;52.006;5.924;2022-10-16T10:27:21;100784.66;;;19.12;64.08
73842;BME280;62184;52.006;5.924;2022-10-16T10:29:59;100775.19;;;19.19;62.06
73842;BME280;62184;52.006;5.924;2022-10-16T10:32:41;100786.94;;;19.34;63.25
73842;BME280;62184;52.006;5.924;2022-10-16T10:35:18;100786.69;;;19.53;61.89
73842;BME280;62184;52.006;5.924;2022-10-16T10:38:02;100786.28;;;19.59;61.02
73842;BME280;62184;52.006;5.924;2022-10-16T10:40:49;100795.56;;;19.69;60.36
73842;BME280;62184;52.006;5.924;2022-10-16T10:43:32;100789.56;;;19.78;60.03
73842;BME280;62184;52.006;5.924;2022-10-16T10:46:18;100789.56;;;19.78;58.70
73842;BME280;62184;52.006;5.924;2022-10-16T10:49:13;100789.88;;;19.73;58.31
73842;BME280;62184;52.006;5.924;2022-10-16T10:52:00;100786.09;;;19.76;58.76
73842;BME280;62184;52.006;5.924;2022-10-16T10:54:39;100787.06;;;19.89;58.71
73842;BME280;62184;52.006;5.924;2022-10-16T10:57:21;100796.91;;;20.04;58.72
73842;BME280;62184;52.006;5.924;2022-10-16T11:00:07;100804.06;;;20.34;57.99
73842;BME280;62184;52.006;5.924;2022-10-16T11:02:50;100795.00;;;20.47;56.91
73842;BME280;62184;52.006;5.924;2022-10-16T11:05:38;100798.50;;;20.62;56.31
73842;BME280;62184;52.006;5.924;2022-10-16T11:08:12;100805.94;;;20.73;56.19
73842;BME280;62184;52.006;5.924;2022-10-16T11:10:51;100797.94;;;20.84;55.04
73842;BME280;62184;52.006;5.924;2022-10-16T11:13:30;100799.78;;;20.83;54.28
73842;BME280;62184;52.006;5.924;2022-10-16T11:16:03;100811.72;;;20.81;53.87
73842;BME280;62184;52.006;5.924;2022-10-16T11:18:47;100803.38;;;20.84;54.12
73842;BME280;62184;52.006;5.924;2022-10-16T11:21:22;100823.44;;;20.81;54.51
73842;BME280;62184;52.006;5.924;2022-10-16T11:23:53;100814.91;;;20.61;53.87
73842;BME280;62184;52.006;5.924;2022-10-16T11:26:29;100824.22;;;20.56;53.70
73842;BME280;62184;52.006;5.924;2022-10-16T11:29:02;100822.16;;;20.60;53.42
73842;BME280;62184;52.006;5.924;2022-10-16T11:31:39;100827.47;;;20.49;53.09
73842;BME280;62184;52.006;5.924;2022-10-16T11:34:15;100822.78;;;20.51;53.81
73842;BME280;62184;52.006;5.924;2022-10-16T11:36:53;100822.31;;;20.71;52.96
73842;BME280;62184;52.006;5.924;2022-10-16T11:39:27;100832.38;;;20.83;53.11
73842;BME280;62184;52.006;5.924;2022-10-16T11:42:01;100830.22;;;20.88;52.56
73842;BME280;62184;52.006;5.924;2022-10-16T11:44:44;100818.31;;;20.77;51.59
73842;BME280;62184;52.006;5.924;2022-10-16T11:47:30;100824.25;;;20.69;51.52
73842;BME280;62184;52.006;5.924;2022-10-16T11:50:06;100827.75;;;20.71;52.45
73842;BME280;62184;52.006;5.924;2022-10-16T11:52:50;100825.72;;;20.75;52.23
73842;BME280;62184;52.006;5.924;2022-10-16T11:55:24;100828.44;;;20.75;51.62
73842;BME280;62184;52.006;5.924;2022-10-16T11:58:00;100828.88;;;20.54;51.52
73842;BME280;62184;52.006;5.924;2022-10-16T12:00:37;100827.59;;;20.33;51.78
73842;BME280;62184;52.006;5.924;2022-10-16T12:03:17;100836.44;;;20.23;51.67
73842;BME280;62184;52.006;5.924;2022-10-16T12:05:55;100847.09;;;20.26;52.05
73842;BME280;62184;52.006;5.924;2022-10-16T12:08:35;100835.69;;;20.47;51.72
73842;BME280;62184;52.006;5.924;2022-10-16T12:11:09;100849.19;;;20.76;51.08
73842;BME280;62184;52.006;5.924;2022-10-16T12:13:49;100838.78;;;20.95;49.82
73842;BME280;62184;52.006;5.924;2022-10-16T12:16:22;100833.97;;;21.00;49.27
73842;BME280;62184;52.006;5.924;2022-10-16T12:19:07;100846.44;;;21.03;49.37
73842;BME280;62184;52.006;5.924;2022-10-16T12:21:37;100850.38;;;21.11;49.67
73842;BME280;62184;52.006;5.924;2022-10-16T12:24:21;100847.72;;;21.24;48.42
73842;BME280;62184;52.006;5.924;2022-10-16T12:26:55;100856.41;;;21.29;48.93
73842;BME280;62184;52.006;5.924;2022-10-16T12:29:29;100856.75;;;21.37;48.43
73842;BME280;62184;52.006;5.924;2022-10-16T12:31:59;100857.31;;;21.42;48.33
73842;BME280;62184;52.006;5.924;2022-10-16T12:34:37;100848.25;;;21.29;47.97
73842;BME280;62184;52.006;5.924;2022-10-16T12:37:12;100851.50;;;21.21;48.53
73842;BME280;62184;52.006;5.924;2022-10-16T12:39:49;100849.84;;;21.19;49.17
73842;BME280;62184;52.006;5.924;2022-10-16T12:42:21;100865.53;;;21.28;48.77
73842;BME280;62184;52.006;5.924;2022-10-16T12:44:56;100859.69;;;21.34;48.81
73842;BME280;62184;52.006;5.924;2022-10-16T12:47:34;100861.97;;;21.40;48.91
73842;BME280;62184;52.006;5.924;2022-10-16T12:50:21;100861.00;;;21.54;47.94
73842;BME280;62184;52.006;5.924;2022-10-16T12:52:50;100857.09;;;21.70;48.55
73842;BME280;62184;52.006;5.924;2022-10-16T12:55:21;100857.78;;;21.87;47.29
73842;BME280;62184;52.006;5.924;2022-10-16T12:58:00;100869.63;;;21.98;47.47
73842;BME280;62184;52.006;5.924;2022-10-16T13:00:44;100870.72;;;22.08;47.19
73842;BME280;62184;52.006;5.924;2022-10-16T13:03:34;100871.59;;;22.09;46.55
73842;BME280;62184;52.006;5.924;2022-10-16T13:06:22;100857.97;;;22.09;46.62
73842;BME280;62184;52.006;5.924;2022-10-16T13:09:22;100866.00;;;22.11;46.72
73842;BME280;62184;52.006;5.924;2022-10-16T13:12:10;100854.03;;;22.13;46.39